createdAt,value
2019-01-17T00:00:58.763Z,8.55
2019-01-17T00:01:58.764Z,8.62
2019-01-17T00:02:58.793Z,8.73
2019-01-17T00:03:58.796Z,8.76
2019-01-17T00:04:58.812Z,8.72
2019-01-17T00:05:58.821Z,8.66
2019-01-17T00:06:58.866Z,8.69
2019-01-17T00:07:58.865Z,8.62
2019-01-17T00:08:58.862Z,8.72
2019-01-17T00:09:58.952Z,8.69
2019-01-17T00:10:58.892Z,8.62
2019-01-17T00:11:58.910Z,8.68
2019-01-17T00:12:58.921Z,8.66
2019-01-17T00:13:58.942Z,8.79
2019-01-17T00:14:58.959Z,8.81
2019-01-17T00:15:58.972Z,8.87
2019-01-17T00:16:58.982Z,8.79
2019-01-17T00:17:58.990Z,8.86
2019-01-17T00:18:59.014Z,8.78
2019-01-17T00:19:59.020Z,8.90
2019-01-17T00:20:59.037Z,8.90
2019-01-17T00:21:59.073Z,8.90
2019-01-17T00:22:59.067Z,8.93
2019-01-17T00:24:02.619Z,8.88
2019-01-17T00:24:59.109Z,8.88
2019-01-17T00:25:59.119Z,8.87
2019-01-17T00:26:59.124Z,8.87
2019-01-17T00:27:59.138Z,8.93
2019-01-17T00:28:59.149Z,8.90
2019-01-17T00:29:59.163Z,8.75
2019-01-17T00:30:59.188Z,8.86
2019-01-17T00:31:59.233Z,8.79
2019-01-17T00:32:59.215Z,8.78
2019-01-17T00:33:59.221Z,8.87
2019-01-17T00:34:59.261Z,8.72
2019-01-17T00:35:59.248Z,8.84
2019-01-17T00:36:59.268Z,8.94
2019-01-17T00:37:59.280Z,8.93
2019-01-17T00:38:59.335Z,8.94
2019-01-17T00:39:59.304Z,9.01
2019-01-17T00:40:59.324Z,8.91
2019-01-17T00:41:59.350Z,9.02
2019-01-17T00:42:59.358Z,8.93
2019-01-17T00:43:59.399Z,8.96
2019-01-17T00:44:59.481Z,9.04
2019-01-17T00:45:59.397Z,8.91
2019-01-17T00:46:59.414Z,8.84
2019-01-17T00:47:59.426Z,8.91
2019-01-17T00:48:59.440Z,8.93
2019-01-17T00:49:59.452Z,8.87
2019-01-17T00:50:59.471Z,8.94
2019-01-17T00:51:59.494Z,8.90
2019-01-17T00:52:59.490Z,8.84
2019-01-17T00:53:59.516Z,8.91
2019-01-17T00:54:59.653Z,8.88
2019-01-17T00:55:59.534Z,8.96
2019-01-17T00:56:59.551Z,8.88
2019-01-17T00:57:59.577Z,9.02
2019-01-17T00:58:59.587Z,8.94
2019-01-17T00:59:59.601Z,8.94
2019-01-17T01:00:59.607Z,8.96
2019-01-17T01:01:59.659Z,9.16
2019-01-17T01:02:59.651Z,8.99
2019-01-17T01:03:59.668Z,9.05
2019-01-17T01:05:59.692Z,8.90
2019-01-17T01:06:59.721Z,8.93
2019-01-17T01:07:59.746Z,8.90
2019-01-17T01:08:59.740Z,9.02
2019-01-17T01:09:59.755Z,9.13
2019-01-17T01:10:59.753Z,9.05
2019-01-17T01:11:59.785Z,9.06
2019-01-17T01:12:59.792Z,9.15
2019-01-17T01:13:59.803Z,9.06
2019-01-17T01:15:59.829Z,9.12
2019-01-17T01:16:59.913Z,9.06
2019-01-17T01:17:59.880Z,9.09
2019-01-17T01:19:59.895Z,9.02
2019-01-17T01:20:59.902Z,9.09
2019-01-17T01:21:59.921Z,9.09
2019-01-17T01:22:59.932Z,9.10
2019-01-17T01:24:59.972Z,9.05
2019-01-17T01:25:59.970Z,9.09
2019-01-17T01:27:00.067Z,9.13
2019-01-17T01:28:00.003Z,9.21
2019-01-17T01:29:00.051Z,9.06
2019-01-17T01:30:00.032Z,9.12
2019-01-17T01:31:00.061Z,9.04
2019-01-17T01:32:00.089Z,9.13
2019-01-17T01:33:00.078Z,9.12
2019-01-17T01:34:00.090Z,9.12
2019-01-17T01:35:00.166Z,9.27
2019-01-17T01:36:00.123Z,9.20
2019-01-17T01:37:00.272Z,9.21
2019-01-17T01:38:00.149Z,9.21
2019-01-17T01:39:00.167Z,9.16
2019-01-17T01:40:00.238Z,9.25
2019-01-17T01:42:00.210Z,9.25
2019-01-17T01:43:00.228Z,9.15
2019-01-17T01:44:00.234Z,9.18
2019-01-17T01:45:00.249Z,9.27
2019-01-17T01:46:00.276Z,9.21
2019-01-17T01:47:00.287Z,9.27
2019-01-17T01:48:00.296Z,9.25
2019-01-17T01:49:00.320Z,9.21
2019-01-17T01:50:00.333Z,9.34
2019-01-17T01:51:00.336Z,9.21
2019-01-17T01:52:00.360Z,9.32
2019-01-17T01:53:00.384Z,9.25
2019-01-17T01:54:00.386Z,9.21
2019-01-17T01:55:00.418Z,9.23
2019-01-17T01:57:00.608Z,9.38
2019-01-17T01:58:00.448Z,9.25
2019-01-17T01:59:00.468Z,9.21
2019-01-17T02:00:00.475Z,9.15
2019-01-17T02:01:00.489Z,9.20
2019-01-17T02:03:00.520Z,9.16
2019-01-17T02:04:00.529Z,9.24
2019-01-17T02:05:00.552Z,9.20
2019-01-17T02:06:00.559Z,9.20
2019-01-17T02:07:00.585Z,9.24
2019-01-17T02:08:00.585Z,9.20
2019-01-17T02:09:00.610Z,9.20
2019-01-17T02:10:00.615Z,9.28
2019-01-17T02:11:00.632Z,9.34
2019-01-17T02:12:00.749Z,9.30
2019-01-17T02:13:00.658Z,9.30
2019-01-17T02:15:00.711Z,9.30
2019-01-17T02:16:00.703Z,9.27
2019-01-17T02:17:00.722Z,9.30
2019-01-17T02:18:00.740Z,9.24
2019-01-17T02:19:00.756Z,9.30
2019-01-17T02:20:00.760Z,9.28
2019-01-17T02:21:00.787Z,9.30
2019-01-17T02:22:00.898Z,9.39
2019-01-17T02:23:00.837Z,9.35
2019-01-17T02:24:00.829Z,9.34
2019-01-17T02:25:00.842Z,9.27
2019-01-17T02:26:00.883Z,9.39
2019-01-17T02:27:00.878Z,9.34
2019-01-17T02:28:00.905Z,9.25
2019-01-17T02:29:00.899Z,9.40
2019-01-17T02:30:00.920Z,9.40
2019-01-17T02:31:00.928Z,9.32
2019-01-17T02:32:00.992Z,9.30
2019-01-17T02:33:00.958Z,9.34
2019-01-17T02:34:00.980Z,9.34
2019-01-17T02:35:01.012Z,9.31
2019-01-17T02:36:00.994Z,9.24
2019-01-17T02:37:01.015Z,9.38
2019-01-17T02:38:01.040Z,9.32
2019-01-17T02:39:01.038Z,9.27
2019-01-17T02:40:01.077Z,9.32
2019-01-17T02:41:01.073Z,9.38
2019-01-17T02:42:01.184Z,9.32
2019-01-17T02:43:01.123Z,9.42
2019-01-17T02:44:01.129Z,9.32
2019-01-17T02:45:01.140Z,9.30
2019-01-17T02:46:01.144Z,9.32
2019-01-17T02:47:01.162Z,9.40
2019-01-17T02:48:01.180Z,9.32
2019-01-17T02:49:01.185Z,9.39
2019-01-17T02:50:01.207Z,9.40
2019-01-17T02:51:01.222Z,9.38
2019-01-17T02:52:01.328Z,9.32
2019-01-17T02:53:01.248Z,9.28
2019-01-17T02:54:01.271Z,9.20
2019-01-17T02:55:01.293Z,9.21
2019-01-17T02:56:01.307Z,9.24
2019-01-17T02:57:01.367Z,9.24
2019-01-17T02:58:01.347Z,9.30
2019-01-17T02:59:01.377Z,9.25
2019-01-17T03:01:01.379Z,9.30
2019-01-17T03:02:01.398Z,9.34
2019-01-17T03:03:01.394Z,9.27
2019-01-17T03:04:01.423Z,9.35
2019-01-17T03:05:01.437Z,9.25
2019-01-17T03:06:01.444Z,9.27
2019-01-17T03:07:01.517Z,9.27
2019-01-17T03:08:01.482Z,9.16
2019-01-17T03:09:01.494Z,9.23
2019-01-17T03:10:01.501Z,9.25
2019-01-17T03:11:01.539Z,9.25
2019-01-17T03:12:01.546Z,9.21
2019-01-17T03:13:01.543Z,9.32
2019-01-17T03:14:01.568Z,9.35
2019-01-17T03:15:01.572Z,9.25
2019-01-17T03:16:01.587Z,9.28
2019-01-17T03:17:01.695Z,9.24
2019-01-17T03:18:01.618Z,9.25
2019-01-17T03:19:01.644Z,9.32
2019-01-17T03:20:01.649Z,9.34
2019-01-17T03:21:01.658Z,9.21
2019-01-17T03:22:01.674Z,9.27
2019-01-17T03:23:01.697Z,9.24
2019-01-17T03:24:01.715Z,9.27
2019-01-17T03:25:01.723Z,9.38
2019-01-17T03:26:01.734Z,9.40
2019-01-17T03:27:01.803Z,9.38
2019-01-17T03:28:01.762Z,9.31
2019-01-17T03:29:01.786Z,9.30
2019-01-17T03:30:01.793Z,9.28
2019-01-17T03:31:01.814Z,9.24
2019-01-17T03:32:01.836Z,9.28
2019-01-17T03:33:01.854Z,9.38
2019-01-17T03:34:01.880Z,9.27
2019-01-17T03:35:01.880Z,9.20
2019-01-17T03:36:01.881Z,9.27
2019-01-17T03:37:01.984Z,9.32
2019-01-17T03:38:01.910Z,9.32
2019-01-17T03:39:01.926Z,9.35
2019-01-17T03:40:01.949Z,9.38
2019-01-17T03:41:01.954Z,9.38
2019-01-17T03:42:01.967Z,9.39
2019-01-17T03:43:02.014Z,9.38
2019-01-17T03:44:02.030Z,9.30
2019-01-17T03:45:02.014Z,9.28
2019-01-17T03:46:02.028Z,9.24
2019-01-17T03:47:02.046Z,9.18
2019-01-17T03:48:02.069Z,9.25
2019-01-17T03:49:02.091Z,9.28
2019-01-17T03:50:02.098Z,9.24
2019-01-17T03:51:02.107Z,9.23
2019-01-17T03:52:02.143Z,9.23
2019-01-17T03:54:02.164Z,9.24
2019-01-17T03:55:02.161Z,9.25
2019-01-17T03:56:02.179Z,9.35
2019-01-17T03:57:02.203Z,9.38
2019-01-17T03:58:02.199Z,9.35
2019-01-17T03:59:02.229Z,9.28
2019-01-17T04:00:02.248Z,9.21
2019-01-17T04:01:02.248Z,9.20
2019-01-17T04:02:02.324Z,9.38
2019-01-17T04:03:02.273Z,9.38
2019-01-17T04:04:02.296Z,9.24
2019-01-17T04:06:02.323Z,9.52
2019-01-17T04:07:02.334Z,9.30
2019-01-17T04:09:02.412Z,9.48
2019-01-17T04:10:02.378Z,9.46
2019-01-17T04:11:02.391Z,9.39
2019-01-17T04:12:02.441Z,9.31
2019-01-17T04:13:02.445Z,9.40
2019-01-17T04:14:02.443Z,9.34
2019-01-17T04:15:02.449Z,9.35
2019-01-17T04:16:02.465Z,9.52
2019-01-17T04:17:02.498Z,9.53
2019-01-17T04:18:02.496Z,9.50
2019-01-17T04:19:02.616Z,9.45
2019-01-17T04:20:02.532Z,9.32
2019-01-17T04:21:02.543Z,9.27
2019-01-17T04:22:02.604Z,9.32
2019-01-17T04:23:02.577Z,9.53
2019-01-17T04:24:02.586Z,9.50
2019-01-17T04:25:02.624Z,9.38
2019-01-17T04:26:02.642Z,9.48
2019-01-17T04:27:02.625Z,9.38
2019-01-17T04:28:02.654Z,9.38
2019-01-17T04:29:02.657Z,9.38
2019-01-17T04:30:02.679Z,9.38
2019-01-17T04:31:02.709Z,9.32
2019-01-17T04:32:02.738Z,9.38
2019-01-17T04:33:02.719Z,9.28
2019-01-17T04:34:02.728Z,9.32
2019-01-17T04:35:02.743Z,9.35
2019-01-17T04:36:02.774Z,9.42
2019-01-17T04:37:02.814Z,9.32
2019-01-17T04:39:02.800Z,9.32
2019-01-17T04:40:02.826Z,9.34
2019-01-17T04:41:02.829Z,9.35
2019-01-17T04:42:02.848Z,9.25
2019-01-17T04:44:02.893Z,9.25
2019-01-17T04:45:02.906Z,9.21
2019-01-17T04:46:02.902Z,9.24
2019-01-17T04:47:02.925Z,9.25
2019-01-17T04:48:02.963Z,9.32
2019-01-17T04:49:02.952Z,9.28
2019-01-17T04:50:02.965Z,9.21
2019-01-17T04:51:02.980Z,9.21
2019-01-17T04:52:03.001Z,9.25
2019-01-17T04:53:03.004Z,9.24
2019-01-17T04:54:03.098Z,9.38
2019-01-17T04:55:05.520Z,9.28
2019-01-17T04:56:03.071Z,9.40
2019-01-17T04:57:03.103Z,9.34
2019-01-17T04:58:03.100Z,9.35
2019-01-17T04:59:03.123Z,9.38
2019-01-17T05:00:03.125Z,9.48
2019-01-17T05:01:03.171Z,9.38
2019-01-17T05:02:03.163Z,9.38
2019-01-17T05:03:03.159Z,9.49
2019-01-17T05:04:03.288Z,9.40
2019-01-17T05:05:03.183Z,9.34
2019-01-17T05:06:03.278Z,9.53
2019-01-17T05:07:03.222Z,9.52
2019-01-17T05:08:03.235Z,9.43
2019-01-17T05:09:03.246Z,9.46
2019-01-17T05:10:03.264Z,9.49
2019-01-17T05:11:03.279Z,9.46
2019-01-17T05:12:03.291Z,9.56
2019-01-17T05:13:03.305Z,9.56
2019-01-17T05:14:03.471Z,9.60
2019-01-17T05:15:03.331Z,9.49
2019-01-17T05:16:03.344Z,9.45
2019-01-17T05:17:03.367Z,9.38
2019-01-17T05:18:03.403Z,9.38
2019-01-17T05:19:03.394Z,9.35
2019-01-17T05:20:03.410Z,9.48
2019-01-17T05:21:03.418Z,9.45
2019-01-17T05:22:03.440Z,9.50
2019-01-17T05:23:03.459Z,9.53
2019-01-17T05:24:03.636Z,9.53
2019-01-17T05:25:03.481Z,9.63
2019-01-17T05:26:03.494Z,9.57
2019-01-17T05:27:03.506Z,9.52
2019-01-17T05:28:03.522Z,9.53
2019-01-17T05:29:03.560Z,9.49
2019-01-17T05:31:05.101Z,9.70
2019-01-17T05:32:03.594Z,9.58
2019-01-17T05:33:03.639Z,9.57
2019-01-17T05:34:03.636Z,9.66
2019-01-17T05:35:03.642Z,9.67
2019-01-17T05:36:03.641Z,9.61
2019-01-17T05:37:03.657Z,9.57
2019-01-17T05:38:03.695Z,9.64
2019-01-17T05:39:03.733Z,9.71
2019-01-17T05:40:03.714Z,9.60
2019-01-17T05:41:03.721Z,9.67
2019-01-17T05:42:03.736Z,9.66
2019-01-17T05:43:03.747Z,9.67
2019-01-17T05:44:03.763Z,9.63
2019-01-17T05:45:03.776Z,9.67
2019-01-17T05:47:03.806Z,9.60
2019-01-17T05:48:03.821Z,9.58
2019-01-17T05:49:03.851Z,9.61
2019-01-17T05:50:03.855Z,9.68
2019-01-17T05:51:03.874Z,9.66
2019-01-17T05:52:03.878Z,9.68
2019-01-17T05:53:03.893Z,9.64
2019-01-17T05:54:03.915Z,9.68
2019-01-17T05:55:03.941Z,9.58
2019-01-17T05:56:03.940Z,9.66
2019-01-17T05:58:03.970Z,9.67
2019-01-17T06:00:04.012Z,9.66
2019-01-17T06:01:04.021Z,9.58
2019-01-17T06:02:04.026Z,9.66
2019-01-17T06:03:04.045Z,9.71
2019-01-17T06:04:04.055Z,9.78
2019-01-17T06:05:04.096Z,9.60
2019-01-17T06:06:04.091Z,9.68
2019-01-17T06:07:04.107Z,9.79
2019-01-17T06:08:04.126Z,9.68
2019-01-17T06:09:04.204Z,9.67
2019-01-17T06:10:04.154Z,9.71
2019-01-17T06:11:04.185Z,9.56
2019-01-17T06:12:04.187Z,9.60
2019-01-17T06:13:04.188Z,9.60
2019-01-17T06:14:04.209Z,9.63
2019-01-17T06:15:04.223Z,9.71
2019-01-17T06:16:04.233Z,9.75
2019-01-17T06:17:04.255Z,9.78
2019-01-17T06:18:04.262Z,9.71
2019-01-17T06:19:04.393Z,9.64
2019-01-17T06:20:04.303Z,9.60
2019-01-17T06:21:04.323Z,9.60
2019-01-17T06:22:04.325Z,9.70
2019-01-17T06:23:04.367Z,9.67
2019-01-17T06:24:04.350Z,9.61
2019-01-17T06:25:04.383Z,9.63
2019-01-17T06:26:04.377Z,9.70
2019-01-17T06:27:04.400Z,9.64
2019-01-17T06:28:04.448Z,9.46
2019-01-17T06:29:04.438Z,9.56
2019-01-17T06:30:04.454Z,9.63
2019-01-17T06:31:04.457Z,9.61
2019-01-17T06:32:04.469Z,9.56
2019-01-17T06:33:04.483Z,9.57
2019-01-17T06:34:04.556Z,9.60
2019-01-17T06:35:04.511Z,9.61
2019-01-17T06:36:04.530Z,9.57
2019-01-17T06:37:04.541Z,9.60
2019-01-17T06:38:04.567Z,9.57
2019-01-17T06:39:04.571Z,9.50
2019-01-17T06:40:04.599Z,9.58
2019-01-17T06:41:04.619Z,9.70
2019-01-17T06:42:04.616Z,9.60
2019-01-17T06:43:04.629Z,9.52
2019-01-17T06:44:04.704Z,9.50
2019-01-17T06:45:04.660Z,9.49
2019-01-17T06:46:04.686Z,9.63
2019-01-17T06:47:04.696Z,9.58
2019-01-17T06:48:04.714Z,9.48
2019-01-17T06:49:04.726Z,9.40
2019-01-17T06:50:04.737Z,9.50
2019-01-17T06:51:04.756Z,9.63
2019-01-17T06:52:04.828Z,9.64
2019-01-17T06:53:04.796Z,9.67
2019-01-17T06:54:04.853Z,9.60
2019-01-17T06:55:04.819Z,9.52
2019-01-17T06:56:04.822Z,9.60
2019-01-17T06:57:04.845Z,9.46
2019-01-17T06:58:04.865Z,9.32
2019-01-17T06:59:04.909Z,9.35
2019-01-17T07:00:04.943Z,9.31
2019-01-17T07:01:04.890Z,9.38
2019-01-17T07:02:04.910Z,9.32
2019-01-17T07:03:04.925Z,9.52
2019-01-17T07:04:04.983Z,9.49
2019-01-17T07:05:04.959Z,9.53
2019-01-17T07:06:04.968Z,9.40
2019-01-17T07:07:04.984Z,9.40
2019-01-17T07:08:05.045Z,9.53
2019-01-17T07:09:05.025Z,9.63
2019-01-17T07:10:05.027Z,9.39
2019-01-17T07:11:05.041Z,9.34
2019-01-17T07:12:05.077Z,9.46
2019-01-17T07:13:05.096Z,9.45
2019-01-17T07:14:05.084Z,9.32
2019-01-17T07:15:05.107Z,9.42
2019-01-17T07:16:05.205Z,9.42
2019-01-17T07:17:05.134Z,9.28
2019-01-17T07:18:05.145Z,9.28
2019-01-17T07:19:05.193Z,9.39
2019-01-17T07:20:05.176Z,9.30
2019-01-17T07:21:05.255Z,9.28
2019-01-17T07:22:05.202Z,9.25
2019-01-17T07:23:05.222Z,9.27
2019-01-17T07:24:05.229Z,9.30
2019-01-17T07:25:05.249Z,9.45
2019-01-17T07:26:05.276Z,9.43
2019-01-17T07:27:05.277Z,9.48
2019-01-17T07:28:05.285Z,9.39
2019-01-17T07:29:05.345Z,9.40
2019-01-17T07:30:05.324Z,9.38
2019-01-17T07:31:05.356Z,9.45
2019-01-17T07:32:05.353Z,9.50
2019-01-17T07:33:05.365Z,9.45
2019-01-17T07:34:05.381Z,9.46
2019-01-17T07:35:05.390Z,9.52
2019-01-17T07:36:05.572Z,9.57
2019-01-17T07:37:05.430Z,9.52
2019-01-17T07:38:05.435Z,9.58
2019-01-17T07:40:05.467Z,9.48
2019-01-17T07:41:05.479Z,9.49
2019-01-17T07:42:05.494Z,9.48
2019-01-17T07:43:05.539Z,9.38
2019-01-17T07:44:05.523Z,9.45
2019-01-17T07:45:05.535Z,9.49
2019-01-17T07:46:05.561Z,9.57
2019-01-17T07:47:05.569Z,9.66
2019-01-17T07:48:05.588Z,9.61
2019-01-17T07:49:05.616Z,9.57
2019-01-17T07:50:05.623Z,9.61
2019-01-17T07:51:05.624Z,9.56
2019-01-17T07:52:05.636Z,9.46
2019-01-17T07:53:05.678Z,9.46
2019-01-17T07:54:05.672Z,9.52
2019-01-17T07:55:05.686Z,9.46
2019-01-17T07:56:05.706Z,9.35
2019-01-17T07:57:05.719Z,9.49
2019-01-17T07:58:05.729Z,9.60
2019-01-17T07:59:05.779Z,9.70
2019-01-17T08:00:05.768Z,9.64
2019-01-17T08:01:05.767Z,9.63
2019-01-17T08:02:05.799Z,9.73
2019-01-17T08:03:05.808Z,9.60
2019-01-17T08:04:05.815Z,9.52
2019-01-17T08:05:05.830Z,9.38
2019-01-17T08:06:05.856Z,9.35
2019-01-17T08:07:05.859Z,9.34
2019-01-17T08:08:05.880Z,9.49
2019-01-17T08:09:05.886Z,9.35
2019-01-17T08:10:05.900Z,9.38
2019-01-17T08:11:05.942Z,9.31
2019-01-17T08:12:05.930Z,9.46
2019-01-17T08:13:05.953Z,9.34
2019-01-17T08:14:05.961Z,9.34
2019-01-17T08:15:05.976Z,9.38
2019-01-17T08:16:05.990Z,9.52
2019-01-17T08:17:06.013Z,9.38
2019-01-17T08:19:06.037Z,9.24
2019-01-17T08:20:06.045Z,9.25
2019-01-17T08:21:06.171Z,9.25
2019-01-17T08:22:06.077Z,9.56
2019-01-17T08:23:06.104Z,9.53
2019-01-17T08:24:06.104Z,9.46
2019-01-17T08:25:06.124Z,9.48
2019-01-17T08:26:06.138Z,9.57
2019-01-17T08:27:06.149Z,9.46
2019-01-17T08:28:06.189Z,9.50
2019-01-17T08:29:06.190Z,9.35
2019-01-17T08:30:06.195Z,9.38
2019-01-17T08:31:06.210Z,9.24
2019-01-17T08:32:06.228Z,9.43
2019-01-17T08:33:06.247Z,9.60
2019-01-17T08:34:06.251Z,9.61
2019-01-17T08:35:06.270Z,9.63
2019-01-17T08:36:06.289Z,9.48
2019-01-17T08:37:06.301Z,9.46
2019-01-17T08:38:06.329Z,9.50
2019-01-17T08:39:06.338Z,9.57
2019-01-17T08:40:06.350Z,9.58
2019-01-17T08:41:06.510Z,9.39
2019-01-17T08:42:06.393Z,9.46
2019-01-17T08:43:06.396Z,9.49
2019-01-17T08:44:06.426Z,9.40
2019-01-17T08:45:06.411Z,9.48
2019-01-17T08:46:06.431Z,9.48
2019-01-17T08:47:06.439Z,9.48
2019-01-17T08:48:06.458Z,9.53
2019-01-17T08:49:06.474Z,9.48
2019-01-17T08:50:06.489Z,9.45
2019-01-17T08:51:06.645Z,9.57
2019-01-17T08:52:06.541Z,9.58
2019-01-17T08:53:06.541Z,9.46
2019-01-17T08:54:06.554Z,9.48
2019-01-17T08:55:06.577Z,9.50
2019-01-17T08:56:06.587Z,9.48
2019-01-17T08:57:06.589Z,9.46
2019-01-17T08:58:06.614Z,9.35
2019-01-17T08:59:06.621Z,9.70
2019-01-17T09:00:06.675Z,9.49
2019-01-17T09:01:06.671Z,9.45
2019-01-17T09:02:06.675Z,9.46
2019-01-17T09:03:06.689Z,9.61
2019-01-17T09:04:06.697Z,9.67
2019-01-17T09:05:06.712Z,9.75
2019-01-17T09:06:06.733Z,9.61
2019-01-17T09:07:06.746Z,9.66
2019-01-17T09:08:06.773Z,9.63
2019-01-17T09:09:06.772Z,9.67
2019-01-17T09:10:06.815Z,9.53
2019-01-17T09:11:06.804Z,9.66
2019-01-17T09:12:06.817Z,9.61
2019-01-17T09:13:06.829Z,9.63
2019-01-17T09:14:06.845Z,9.64
2019-01-17T09:15:06.876Z,9.64
2019-01-17T09:16:06.915Z,9.61
2019-01-17T09:17:06.885Z,9.63
2019-01-17T09:18:06.911Z,9.71
2019-01-17T09:19:06.918Z,9.63
2019-01-17T09:20:06.943Z,9.58
2019-01-17T09:21:06.948Z,9.64
2019-01-17T09:22:06.960Z,9.64
2019-01-17T09:23:06.971Z,9.63
2019-01-17T09:24:06.993Z,9.64
2019-01-17T09:25:07.003Z,9.66
2019-01-17T09:26:07.684Z,9.57
2019-01-17T09:27:07.034Z,9.63
2019-01-17T09:28:07.066Z,9.67
2019-01-17T09:29:07.063Z,9.64
2019-01-17T09:30:07.077Z,9.75
2019-01-17T09:31:07.091Z,9.56
2019-01-17T09:32:07.113Z,9.68
2019-01-17T09:33:07.122Z,9.81
2019-01-17T09:34:07.151Z,9.71
2019-01-17T09:35:07.156Z,9.68
2019-01-17T09:36:07.263Z,9.68
2019-01-17T09:37:07.181Z,9.70
2019-01-17T09:38:07.198Z,9.75
2019-01-17T09:39:07.219Z,9.64
2019-01-17T09:40:07.222Z,9.67
2019-01-17T09:41:07.238Z,9.64
2019-01-17T09:42:07.274Z,9.63
2019-01-17T09:43:07.268Z,9.64
2019-01-17T09:44:07.286Z,9.67
2019-01-17T09:45:07.306Z,9.61
2019-01-17T09:46:07.403Z,9.67
2019-01-17T09:47:07.348Z,9.71
2019-01-17T09:48:07.353Z,9.73
2019-01-17T09:49:07.368Z,9.70
2019-01-17T09:50:07.395Z,9.63
2019-01-17T09:51:07.427Z,9.60
2019-01-17T09:52:07.412Z,9.68
2019-01-17T09:53:07.426Z,9.63
2019-01-17T09:54:07.470Z,9.71
2019-01-17T09:55:07.459Z,9.68
2019-01-17T09:56:08.145Z,9.67
2019-01-17T09:57:07.477Z,9.70
2019-01-17T09:58:07.502Z,9.68
2019-01-17T09:59:07.519Z,9.70
2019-01-17T10:00:07.520Z,9.66
2019-01-17T10:01:07.576Z,9.66
2019-01-17T10:03:07.575Z,9.61
2019-01-17T10:04:07.584Z,9.64
2019-01-17T10:05:07.653Z,9.71
2019-01-17T10:06:07.618Z,9.66
2019-01-17T10:07:07.628Z,9.67
2019-01-17T10:08:07.637Z,9.61
2019-01-17T10:09:07.658Z,9.58
2019-01-17T10:10:07.671Z,9.68
2019-01-17T10:11:07.682Z,9.61
2019-01-17T10:12:07.713Z,9.61
2019-01-17T10:13:07.723Z,9.73
2019-01-17T10:14:07.756Z,9.64
2019-01-17T10:15:07.749Z,9.48
2019-01-17T10:16:07.762Z,9.56
2019-01-17T10:17:07.776Z,9.63
2019-01-17T10:18:07.794Z,9.57
2019-01-17T10:21:07.840Z,9.53
2019-01-17T10:22:07.849Z,9.45
2019-01-17T10:23:07.865Z,9.61
2019-01-17T10:24:07.881Z,9.63
2019-01-17T10:25:07.900Z,9.64
2019-01-17T10:26:07.939Z,9.52
2019-01-17T10:27:07.925Z,9.48
2019-01-17T10:28:07.943Z,9.49
2019-01-17T10:29:07.965Z,9.48
2019-01-17T10:30:07.979Z,9.46
2019-01-17T10:31:08.030Z,9.48
2019-01-17T10:32:08.009Z,9.46
2019-01-17T10:33:08.015Z,9.49
2019-01-17T10:34:08.041Z,9.58
2019-01-17T10:35:08.049Z,9.56
2019-01-17T10:36:08.075Z,9.52
2019-01-17T10:37:08.079Z,9.43
2019-01-17T10:38:08.104Z,9.46
2019-01-17T10:39:08.111Z,9.46
2019-01-17T10:40:08.129Z,9.57
2019-01-17T10:41:08.136Z,9.52
2019-01-17T10:42:08.152Z,9.42
2019-01-17T10:43:08.280Z,9.43
2019-01-17T10:44:08.185Z,9.40
2019-01-17T10:45:08.196Z,9.43
2019-01-17T10:46:08.211Z,9.43
2019-01-17T10:47:08.233Z,9.42
2019-01-17T10:48:08.247Z,9.38
2019-01-17T10:49:08.252Z,9.52
2019-01-17T10:50:08.273Z,9.63
2019-01-17T10:51:08.290Z,9.63
2019-01-17T10:52:08.297Z,9.57
2019-01-17T10:53:08.333Z,9.57
2019-01-17T10:54:08.334Z,9.53
2019-01-17T10:55:08.354Z,9.63
2019-01-17T10:56:08.357Z,9.48
2019-01-17T10:57:08.384Z,9.52
2019-01-17T10:58:08.394Z,9.49
2019-01-17T10:59:08.449Z,9.58
2019-01-17T11:00:08.420Z,9.61
2019-01-17T11:01:08.440Z,9.57
2019-01-17T11:03:08.799Z,9.57
2019-01-17T11:04:08.479Z,9.61
2019-01-17T11:05:08.506Z,9.67
2019-01-17T11:06:08.511Z,9.57
2019-01-17T11:07:08.524Z,9.61
2019-01-17T11:08:08.540Z,9.67
2019-01-17T11:09:08.562Z,9.63
2019-01-17T11:10:08.571Z,9.64
2019-01-17T11:11:08.592Z,9.61
2019-01-17T11:12:08.605Z,9.61
2019-01-17T11:13:08.739Z,9.66
2019-01-17T11:14:08.629Z,9.68
2019-01-17T11:15:08.645Z,9.60
2019-01-17T11:16:08.682Z,9.67
2019-01-17T11:17:08.694Z,9.56
2019-01-17T11:18:08.744Z,9.64
2019-01-17T11:19:08.715Z,9.64
2019-01-17T11:20:08.715Z,9.68
2019-01-17T11:21:08.738Z,9.67
2019-01-17T11:22:08.753Z,9.76
2019-01-17T11:23:08.835Z,9.81
2019-01-17T11:24:08.783Z,9.83
2019-01-17T11:25:08.798Z,9.67
2019-01-17T11:26:08.817Z,9.79
2019-01-17T11:27:08.832Z,9.82
2019-01-17T11:28:08.843Z,9.70
2019-01-17T11:29:08.855Z,9.66
2019-01-17T11:30:08.897Z,9.64
2019-01-17T11:31:08.911Z,9.73
2019-01-17T11:32:08.939Z,9.67
2019-01-17T11:33:08.927Z,9.64
2019-01-17T11:34:08.956Z,9.63
2019-01-17T11:35:08.951Z,9.63
2019-01-17T11:36:08.957Z,9.68
2019-01-17T11:37:08.975Z,9.64
2019-01-17T11:39:09.004Z,9.64
2019-01-17T11:40:09.030Z,9.63
2019-01-17T11:41:09.045Z,9.78
2019-01-17T11:42:09.057Z,9.71
2019-01-17T11:43:09.070Z,9.68
2019-01-17T11:44:09.083Z,9.61
2019-01-17T11:45:09.106Z,9.71
2019-01-17T11:46:09.108Z,9.85
2019-01-17T11:47:09.135Z,9.94
2019-01-17T11:48:09.224Z,9.94
2019-01-17T11:49:09.160Z,9.85
2019-01-17T11:50:09.213Z,9.88
2019-01-17T11:51:09.183Z,9.94
2019-01-17T11:52:09.208Z,9.91
2019-01-17T11:53:09.221Z,9.81
2019-01-17T11:54:09.242Z,9.85
2019-01-17T11:55:09.272Z,9.85
2019-01-17T11:56:09.260Z,9.81
2019-01-17T11:57:09.281Z,9.78
2019-01-17T11:58:09.344Z,9.78
2019-01-17T11:59:09.330Z,9.78
2019-01-17T12:00:09.315Z,9.76
2019-01-17T12:01:09.340Z,9.83
2019-01-17T12:02:09.350Z,9.79
2019-01-17T12:03:10.391Z,9.75
2019-01-17T12:04:09.389Z,9.71
2019-01-17T12:05:09.395Z,9.81
2019-01-17T12:06:09.420Z,9.94
2019-01-17T12:07:09.431Z,9.79
2019-01-17T12:08:09.530Z,9.81
2019-01-17T12:09:09.462Z,9.83
2019-01-17T12:10:09.474Z,9.83
2019-01-17T12:11:09.494Z,9.81
2019-01-17T12:12:09.501Z,9.66
2019-01-17T12:13:09.521Z,9.70
2019-01-17T12:14:09.533Z,9.71
2019-01-17T12:15:09.554Z,9.78
2019-01-17T12:16:09.565Z,9.81
2019-01-17T12:17:09.579Z,9.82
2019-01-17T12:18:09.678Z,9.76
2019-01-17T12:19:09.608Z,9.71
2019-01-17T12:20:09.677Z,9.71
2019-01-17T12:21:09.650Z,9.71
2019-01-17T12:22:09.662Z,9.68
2019-01-17T12:23:09.685Z,9.73
2019-01-17T12:24:09.690Z,9.73
2019-01-17T12:25:09.695Z,9.66
2019-01-17T12:26:09.715Z,9.63
2019-01-17T12:27:09.728Z,9.61
2019-01-17T12:28:09.754Z,9.71
2019-01-17T12:29:09.763Z,9.71
2019-01-17T12:30:09.891Z,9.66
2019-01-17T12:31:09.794Z,9.70
2019-01-17T12:32:09.814Z,9.60
2019-01-17T12:33:09.884Z,9.60
2019-01-17T12:34:09.839Z,9.66
2019-01-17T12:35:09.855Z,9.67
2019-01-17T12:36:09.861Z,9.67
2019-01-17T12:37:09.882Z,9.67
2019-01-17T12:38:09.898Z,9.70
2019-01-17T12:39:09.908Z,9.61
2019-01-17T12:40:10.029Z,9.64
2019-01-17T12:41:10.014Z,9.66
2019-01-17T12:42:09.956Z,9.63
2019-01-17T12:43:10.018Z,9.64
2019-01-17T12:44:09.982Z,9.66
2019-01-17T12:45:09.998Z,9.67
2019-01-17T12:46:10.014Z,9.64
2019-01-17T12:47:10.047Z,9.60
2019-01-17T12:48:10.041Z,9.58
2019-01-17T12:49:10.058Z,9.67
2019-01-17T12:50:10.143Z,9.73
2019-01-17T12:51:10.089Z,9.70
2019-01-17T12:52:10.104Z,9.57
2019-01-17T12:53:10.139Z,9.73
2019-01-17T12:54:10.147Z,9.64
2019-01-17T12:55:10.146Z,9.61
2019-01-17T12:56:10.180Z,9.67
2019-01-17T12:57:10.191Z,9.63
2019-01-17T12:58:10.191Z,9.58
2019-01-17T12:59:10.215Z,9.60
2019-01-17T13:00:10.425Z,9.68
2019-01-17T13:01:10.239Z,9.76
2019-01-17T13:02:10.285Z,9.67
2019-01-17T13:03:10.293Z,9.66
2019-01-17T13:04:10.286Z,9.60
2019-01-17T13:06:10.316Z,9.57
2019-01-17T13:07:10.329Z,9.57
2019-01-17T13:08:10.341Z,9.57
2019-01-17T13:09:10.369Z,9.45
2019-01-17T13:10:10.394Z,9.27
2019-01-17T13:11:10.389Z,9.10
2019-01-17T13:12:10.401Z,9.13
2019-01-17T13:13:10.417Z,8.86
2019-01-17T13:14:10.437Z,8.88
2019-01-17T13:15:10.450Z,8.87
2019-01-17T13:16:10.473Z,8.91
2019-01-17T13:17:10.478Z,8.94
2019-01-17T13:18:10.525Z,8.79
2019-01-17T13:19:10.518Z,8.86
2019-01-17T13:20:10.523Z,9.12
2019-01-17T13:21:10.540Z,9.16
2019-01-17T13:22:10.551Z,9.27
2019-01-17T13:25:10.734Z,9.43
2019-01-17T13:26:10.607Z,9.40
2019-01-17T13:27:10.633Z,9.58
2019-01-17T13:28:10.650Z,9.50
2019-01-17T13:29:10.659Z,9.57
2019-01-17T13:30:10.674Z,9.70
2019-01-17T13:31:10.683Z,9.82
2019-01-17T13:33:10.719Z,9.82
2019-01-17T13:34:10.735Z,9.79
2019-01-17T13:35:10.866Z,9.68
2019-01-17T13:36:10.758Z,9.66
2019-01-17T13:37:10.782Z,9.71
2019-01-17T13:38:10.797Z,9.67
2019-01-17T13:39:10.811Z,9.83
2019-01-17T13:40:10.831Z,9.83
2019-01-17T13:41:10.831Z,9.75
2019-01-17T13:42:10.854Z,9.67
2019-01-17T13:43:10.872Z,9.79
2019-01-17T13:44:10.891Z,9.79
2019-01-17T13:45:11.046Z,9.82
2019-01-17T13:46:10.922Z,9.91
2019-01-17T13:47:10.926Z,9.97
2019-01-17T13:48:10.939Z,10.07